sensor_id;sensor_type;location;lat;lon;timestamp;temperature;humidity
59301;DHT22;45073;52.740;6.784;2023-08-31T00:01:49;11.80;99.90
59301;DHT22;45073;52.740;6.784;2023-08-31T00:04:15;11.70;99.90
59301;DHT22;45073;52.740;6.784;2023-08-31T00:06:41;11.70;99.90
59301;DHT22;45073;52.740;6.784;2023-08-31T00:09:07;11.70;99.90
59301;DHT22;45073;52.740;6.784;2023-08-31T00:11:38;11.60;99.90
59301;DHT22;45073;52.740;6.784;2023-08-31T00:14:04;11.60;99.90
59301;DHT22;45073;52.740;6.784;2023-08-31T00:16:30;11.60;99.90
59301;DHT22;45073;52.740;6.784;2023-08-31T00:18:59;11.60;99.90
59301;DHT22;45073;52.740;6.784;2023-08-31T00:21:24;11.60;99.90
59301;DHT22;45073;52.740;6.784;2023-08-31T00:23:50;11.60;99.90
59301;DHT22;45073;52.740;6.784;2023-08-31T00:26:16;11.60;99.90
59301;DHT22;45073;52.740;6.784;2023-08-31T00:28:41;11.60;99.90
59301;DHT22;45073;52.740;6.784;2023-08-31T00:31:08;11.60;99.90
59301;DHT22;45073;52.740;6.784;2023-08-31T00:33:34;11.50;99.90
59301;DHT22;45073;52.740;6.784;2023-08-31T00:36:03;11.50;99.90
59301;DHT22;45073;52.740;6.784;2023-08-31T00:38:30;11.50;99.90
59301;DHT22;45073;52.740;6.784;2023-08-31T00:40:56;11.60;99.90
59301;DHT22;45073;52.740;6.784;2023-08-31T00:43:21;11.50;99.90
59301;DHT22;45073;52.740;6.784;2023-08-31T00:45:51;11.50;99.90
59301;DHT22;45073;52.740;6.784;2023-08-31T00:48:22;11.60;99.90
59301;DHT22;45073;52.740;6.784;2023-08-31T00:50:48;11.60;99.90
59301;DHT22;45073;52.740;6.784;2023-08-31T00:53:15;11.60;99.90
59301;DHT22;45073;52.740;6.784;2023-08-31T00:55:41;11.60;99.90
59301;DHT22;45073;52.740;6.784;2023-08-31T00:58:07;11.60;99.90
59301;DHT22;45073;52.740;6.784;2023-08-31T01:00:49;11.60;99.90
59301;DHT22;45073;52.740;6.784;2023-08-31T01:03:32;11.50;99.90
59301;DHT22;45073;52.740;6.784;2023-08-31T01:06:17;11.60;99.90
59301;DHT22;45073;52.740;6.784;2023-08-31T01:12:09;11.60;99.90
59301;DHT22;45073;52.740;6.784;2023-08-31T01:15:10;11.60;99.90
59301;DHT22;45073;52.740;6.784;2023-08-31T01:17:42;11.70;99.90
59301;DHT22;45073;52.740;6.784;2023-08-31T01:20:10;11.70;99.90
59301;DHT22;45073;52.740;6.784;2023-08-31T01:22:43;11.70;99.90
59301;DHT22;45073;52.740;6.784;2023-08-31T01:25:14;11.70;99.90
59301;DHT22;45073;52.740;6.784;2023-08-31T01:27:40;11.70;99.90
59301;DHT22;45073;52.740;6.784;2023-08-31T01:30:07;11.70;99.90
59301;DHT22;45073;52.740;6.784;2023-08-31T01:32:34;11.70;99.90
59301;DHT22;45073;52.740;6.784;2023-08-31T01:35:01;11.70;99.90
59301;DHT22;45073;52.740;6.784;2023-08-31T01:37:47;11.70;99.90
59301;DHT22;45073;52.740;6.784;2023-08-31T01:40:36;11.70;99.90
59301;DHT22;45073;52.740;6.784;2023-08-31T01:43:05;11.70;99.90
59301;DHT22;45073;52.740;6.784;2023-08-31T01:45:32;11.70;99.90
59301;DHT22;45073;52.740;6.784;2023-08-31T01:47:59;11.70;99.90
59301;DHT22;45073;52.740;6.784;2023-08-31T01:50:25;11.80;99.90
59301;DHT22;45073;52.740;6.784;2023-08-31T01:52:51;11.80;99.90
59301;DHT22;45073;52.740;6.784;2023-08-31T01:55:18;11.80;99.90
59301;DHT22;45073;52.740;6.784;2023-08-31T01:57:44;11.90;99.90
59301;DHT22;45073;52.740;6.784;2023-08-31T02:00:11;11.90;99.90
59301;DHT22;45073;52.740;6.784;2023-08-31T02:02:37;11.90;99.90
59301;DHT22;45073;52.740;6.784;2023-08-31T02:05:03;11.90;99.90
59301;DHT22;45073;52.740;6.784;2023-08-31T02:07:30;11.80;99.90
59301;DHT22;45073;52.740;6.784;2023-08-31T02:09:55;11.80;99.90
59301;DHT22;45073;52.740;6.784;2023-08-31T02:12:21;11.80;99.90
59301;DHT22;45073;52.740;6.784;2023-08-31T02:14:47;11.80;99.90
59301;DHT22;45073;52.740;6.784;2023-08-31T02:17:12;11.70;99.90
59301;DHT22;45073;52.740;6.784;2023-08-31T02:19:38;11.80;99.90
59301;DHT22;45073;52.740;6.784;2023-08-31T02:22:03;11.70;99.90
59301;DHT22;45073;52.740;6.784;2023-08-31T02:24:30;11.80;99.90
59301;DHT22;45073;52.740;6.784;2023-08-31T02:26:56;11.80;99.90
59301;DHT22;45073;52.740;6.784;2023-08-31T02:29:22;11.80;99.90
59301;DHT22;45073;52.740;6.784;2023-08-31T02:31:48;11.70;99.90
59301;DHT22;45073;52.740;6.784;2023-08-31T02:34:14;11.70;99.90
59301;DHT22;45073;52.740;6.784;2023-08-31T02:36:39;11.70;99.90
59301;DHT22;45073;52.740;6.784;2023-08-31T02:39:05;11.80;99.90
59301;DHT22;45073;52.740;6.784;2023-08-31T02:41:31;11.70;99.90
59301;DHT22;45073;52.740;6.784;2023-08-31T02:43:57;11.70;99.90
59301;DHT22;45073;52.740;6.784;2023-08-31T02:46:23;11.70;99.90
59301;DHT22;45073;52.740;6.784;2023-08-31T02:48:49;11.70;99.90
59301;DHT22;45073;52.740;6.784;2023-08-31T02:51:15;11.60;99.90
59301;DHT22;45073;52.740;6.784;2023-08-31T02:53:40;11.60;99.90
59301;DHT22;45073;52.740;6.784;2023-08-31T02:56:06;11.60;99.90
59301;DHT22;45073;52.740;6.784;2023-08-31T02:58:32;11.60;99.90
59301;DHT22;45073;52.740;6.784;2023-08-31T03:01:10;11.50;99.90
59301;DHT22;45073;52.740;6.784;2023-08-31T03:03:37;11.50;99.90
59301;DHT22;45073;52.740;6.784;2023-08-31T03:06:04;11.50;99.90
59301;DHT22;45073;52.740;6.784;2023-08-31T03:08:30;11.50;99.90
59301;DHT22;45073;52.740;6.784;2023-08-31T03:10:56;11.50;99.90
59301;DHT22;45073;52.740;6.784;2023-08-31T03:13:22;11.50;99.90
59301;DHT22;45073;52.740;6.784;2023-08-31T03:15:48;11.50;99.90
59301;DHT22;45073;52.740;6.784;2023-08-31T03:18:13;11.50;99.90
59301;DHT22;45073;52.740;6.784;2023-08-31T03:20:39;11.50;99.90
59301;DHT22;45073;52.740;6.784;2023-08-31T03:23:04;11.60;99.90
59301;DHT22;45073;52.740;6.784;2023-08-31T03:25:30;11.60;99.90
59301;DHT22;45073;52.740;6.784;2023-08-31T03:27:56;11.60;99.90
59301;DHT22;45073;52.740;6.784;2023-08-31T03:30:21;11.50;99.90
59301;DHT22;45073;52.740;6.784;2023-08-31T03:32:47;11.50;99.90
59301;DHT22;45073;52.740;6.784;2023-08-31T03:35:13;11.50;99.90
59301;DHT22;45073;52.740;6.784;2023-08-31T03:37:38;11.60;99.90
59301;DHT22;45073;52.740;6.784;2023-08-31T03:40:05;11.50;99.90
59301;DHT22;45073;52.740;6.784;2023-08-31T03:42:33;11.50;99.90
59301;DHT22;45073;52.740;6.784;2023-08-31T03:44:59;11.60;99.90
59301;DHT22;45073;52.740;6.784;2023-08-31T03:47:24;11.60;99.90
59301;DHT22;45073;52.740;6.784;2023-08-31T03:49:50;11.60;99.90
59301;DHT22;45073;52.740;6.784;2023-08-31T03:52:16;11.60;99.90
59301;DHT22;45073;52.740;6.784;2023-08-31T03:54:41;11.60;99.90
59301;DHT22;45073;52.740;6.784;2023-08-31T03:57:07;11.60;99.90
59301;DHT22;45073;52.740;6.784;2023-08-31T03:59:32;11.60;99.90
59301;DHT22;45073;52.740;6.784;2023-08-31T04:01:58;11.50;99.90
59301;DHT22;45073;52.740;6.784;2023-08-31T04:04:24;11.50;99.90
59301;DHT22;45073;52.740;6.784;2023-08-31T04:06:50;11.50;99.90
59301;DHT22;45073;52.740;6.784;2023-08-31T04:09:15;11.50;99.90
59301;DHT22;45073;52.740;6.784;2023-08-31T04:11:41;11.50;99.90
59301;DHT22;45073;52.740;6.784;2023-08-31T04:14:06;11.50;99.90
59301;DHT22;45073;52.740;6.784;2023-08-31T04:16:32;11.50;99.90
59301;DHT22;45073;52.740;6.784;2023-08-31T04:18:58;11.50;99.90
59301;DHT22;45073;52.740;6.784;2023-08-31T04:21:24;11.40;99.90
59301;DHT22;45073;52.740;6.784;2023-08-31T04:23:49;11.50;99.90
59301;DHT22;45073;52.740;6.784;2023-08-31T04:26:15;11.50;99.90
59301;DHT22;45073;52.740;6.784;2023-08-31T04:28:43;11.50;99.90
59301;DHT22;45073;52.740;6.784;2023-08-31T04:31:09;11.50;99.90
59301;DHT22;45073;52.740;6.784;2023-08-31T04:33:36;11.40;99.90
59301;DHT22;45073;52.740;6.784;2023-08-31T04:36:02;11.40;99.90
59301;DHT22;45073;52.740;6.784;2023-08-31T04:38:29;11.40;99.90
59301;DHT22;45073;52.740;6.784;2023-08-31T04:40:54;11.40;99.90
59301;DHT22;45073;52.740;6.784;2023-08-31T04:43:23;11.40;99.90
59301;DHT22;45073;52.740;6.784;2023-08-31T04:45:48;11.50;99.90
59301;DHT22;45073;52.740;6.784;2023-08-31T04:48:14;11.50;99.90
59301;DHT22;45073;52.740;6.784;2023-08-31T04:50:41;11.50;99.90
59301;DHT22;45073;52.740;6.784;2023-08-31T04:53:06;11.50;99.90
59301;DHT22;45073;52.740;6.784;2023-08-31T04:55:32;11.50;99.90
59301;DHT22;45073;52.740;6.784;2023-08-31T04:57:57;11.50;99.90
59301;DHT22;45073;52.740;6.784;2023-08-31T05:00:23;11.50;99.90
59301;DHT22;45073;52.740;6.784;2023-08-31T05:02:49;11.50;99.90
59301;DHT22;45073;52.740;6.784;2023-08-31T05:05:14;11.50;99.90
59301;DHT22;45073;52.740;6.784;2023-08-31T05:07:40;11.50;99.90
59301;DHT22;45073;52.740;6.784;2023-08-31T05:10:06;11.50;99.90
59301;DHT22;45073;52.740;6.784;2023-08-31T05:12:32;11.60;99.90
59301;DHT22;45073;52.740;6.784;2023-08-31T05:14:58;11.70;99.90
59301;DHT22;45073;52.740;6.784;2023-08-31T05:17:23;11.70;99.90
59301;DHT22;45073;52.740;6.784;2023-08-31T05:19:49;11.80;99.90
59301;DHT22;45073;52.740;6.784;2023-08-31T05:22:15;11.80;99.90
59301;DHT22;45073;52.740;6.784;2023-08-31T05:24:41;11.70;99.90
59301;DHT22;45073;52.740;6.784;2023-08-31T05:27:07;11.70;99.90
59301;DHT22;45073;52.740;6.784;2023-08-31T05:29:32;11.70;99.90
59301;DHT22;45073;52.740;6.784;2023-08-31T05:31:58;11.80;99.90
59301;DHT22;45073;52.740;6.784;2023-08-31T05:34:24;11.80;99.90
59301;DHT22;45073;52.740;6.784;2023-08-31T05:36:50;11.80;99.90
59301;DHT22;45073;52.740;6.784;2023-08-31T05:39:16;11.80;99.90
59301;DHT22;45073;52.740;6.784;2023-08-31T05:41:43;11.80;99.90
59301;DHT22;45073;52.740;6.784;2023-08-31T05:44:09;11.80;99.90
59301;DHT22;45073;52.740;6.784;2023-08-31T05:46:35;11.90;99.90
59301;DHT22;45073;52.740;6.784;2023-08-31T05:49:01;11.90;99.90
59301;DHT22;45073;52.740;6.784;2023-08-31T05:51:26;11.90;99.90
59301;DHT22;45073;52.740;6.784;2023-08-31T05:53:52;11.90;99.90
59301;DHT22;45073;52.740;6.784;2023-08-31T05:56:19;11.90;99.90
59301;DHT22;45073;52.740;6.784;2023-08-31T05:58:45;12.00;99.90
59301;DHT22;45073;52.740;6.784;2023-08-31T06:01:10;12.00;99.90
59301;DHT22;45073;52.740;6.784;2023-08-31T06:03:36;12.00;99.90
59301;DHT22;45073;52.740;6.784;2023-08-31T06:06:02;12.10;99.90
59301;DHT22;45073;52.740;6.784;2023-08-31T06:08:28;12.10;99.90
59301;DHT22;45073;52.740;6.784;2023-08-31T06:10:55;12.20;99.90
59301;DHT22;45073;52.740;6.784;2023-08-31T06:13:21;12.20;99.90
59301;DHT22;45073;52.740;6.784;2023-08-31T06:15:47;12.30;99.90
59301;DHT22;45073;52.740;6.784;2023-08-31T06:18:12;12.40;99.90
59301;DHT22;45073;52.740;6.784;2023-08-31T06:20:38;12.40;99.90
59301;DHT22;45073;52.740;6.784;2023-08-31T06:23:04;12.40;99.90
59301;DHT22;45073;52.740;6.784;2023-08-31T06:25:29;12.40;99.90
59301;DHT22;45073;52.740;6.784;2023-08-31T06:27:55;12.40;99.90
59301;DHT22;45073;52.740;6.784;2023-08-31T06:30:21;12.50;99.90
59301;DHT22;45073;52.740;6.784;2023-08-31T06:32:47;12.50;99.90
59301;DHT22;45073;52.740;6.784;2023-08-31T06:35:14;12.60;99.90
59301;DHT22;45073;52.740;6.784;2023-08-31T06:37:43;12.70;99.90
59301;DHT22;45073;52.740;6.784;2023-08-31T06:40:09;12.70;99.90
59301;DHT22;45073;52.740;6.784;2023-08-31T06:42:36;12.80;99.90
59301;DHT22;45073;52.740;6.784;2023-08-31T06:45:06;12.80;99.90
59301;DHT22;45073;52.740;6.784;2023-08-31T06:47:32;12.90;99.90
59301;DHT22;45073;52.740;6.784;2023-08-31T06:49:58;13.00;99.90
59301;DHT22;45073;52.740;6.784;2023-08-31T06:52:28;13.10;99.90
59301;DHT22;45073;52.740;6.784;2023-08-31T06:54:53;13.20;99.90
59301;DHT22;45073;52.740;6.784;2023-08-31T06:57:26;13.30;99.90
59301;DHT22;45073;52.740;6.784;2023-08-31T06:59:52;13.50;99.90
59301;DHT22;45073;52.740;6.784;2023-08-31T07:02:18;13.50;99.90
59301;DHT22;45073;52.740;6.784;2023-08-31T07:04:47;13.60;99.90
59301;DHT22;45073;52.740;6.784;2023-08-31T07:07:13;13.70;99.90
59301;DHT22;45073;52.740;6.784;2023-08-31T07:09:43;13.80;99.90
59301;DHT22;45073;52.740;6.784;2023-08-31T07:12:09;13.80;99.90
59301;DHT22;45073;52.740;6.784;2023-08-31T07:14:35;13.90;99.90
59301;DHT22;45073;52.740;6.784;2023-08-31T07:17:01;14.00;99.90
59301;DHT22;45073;52.740;6.784;2023-08-31T07:19:26;14.00;99.90
59301;DHT22;45073;52.740;6.784;2023-08-31T07:21:52;14.00;99.90
59301;DHT22;45073;52.740;6.784;2023-08-31T07:24:20;14.10;99.90
59301;DHT22;45073;52.740;6.784;2023-08-31T07:26:47;14.10;99.90
59301;DHT22;45073;52.740;6.784;2023-08-31T07:29:13;14.10;99.90
59301;DHT22;45073;52.740;6.784;2023-08-31T07:31:38;14.10;99.90
59301;DHT22;45073;52.740;6.784;2023-08-31T07:34:04;14.10;99.90
59301;DHT22;45073;52.740;6.784;2023-08-31T07:36:30;14.10;99.90
59301;DHT22;45073;52.740;6.784;2023-08-31T07:38:55;14.10;99.90
59301;DHT22;45073;52.740;6.784;2023-08-31T07:41:21;14.00;99.90
59301;DHT22;45073;52.740;6.784;2023-08-31T07:43:46;14.00;99.90
59301;DHT22;45073;52.740;6.784;2023-08-31T07:46:12;14.00;99.90
59301;DHT22;45073;52.740;6.784;2023-08-31T07:48:38;14.10;99.90
59301;DHT22;45073;52.740;6.784;2023-08-31T07:51:04;14.30;99.90
59301;DHT22;45073;52.740;6.784;2023-08-31T07:53:30;14.40;99.90
59301;DHT22;45073;52.740;6.784;2023-08-31T07:55:55;14.60;99.90
59301;DHT22;45073;52.740;6.784;2023-08-31T07:58:24;14.80;99.90
59301;DHT22;45073;52.740;6.784;2023-08-31T08:00:55;14.90;99.90
59301;DHT22;45073;52.740;6.784;2023-08-31T08:03:22;14.90;99.90
59301;DHT22;45073;52.740;6.784;2023-08-31T08:05:47;15.00;99.90
59301;DHT22;45073;52.740;6.784;2023-08-31T08:08:13;15.20;99.90
59301;DHT22;45073;52.740;6.784;2023-08-31T08:10:39;15.20;99.90
59301;DHT22;45073;52.740;6.784;2023-08-31T08:13:04;15.30;99.90
59301;DHT22;45073;52.740;6.784;2023-08-31T08:15:30;15.40;99.90
59301;DHT22;45073;52.740;6.784;2023-08-31T08:17:56;15.50;99.90
59301;DHT22;45073;52.740;6.784;2023-08-31T08:20:25;15.50;99.90
59301;DHT22;45073;52.740;6.784;2023-08-31T08:22:50;15.40;99.90
59301;DHT22;45073;52.740;6.784;2023-08-31T08:25:21;15.50;99.90
59301;DHT22;45073;52.740;6.784;2023-08-31T08:27:47;15.60;99.90
59301;DHT22;45073;52.740;6.784;2023-08-31T08:30:14;15.60;99.90
59301;DHT22;45073;52.740;6.784;2023-08-31T08:32:41;15.80;99.90
59301;DHT22;45073;52.740;6.784;2023-08-31T08:35:07;16.00;99.90
59301;DHT22;45073;52.740;6.784;2023-08-31T08:37:32;16.00;99.90
59301;DHT22;45073;52.740;6.784;2023-08-31T08:39:58;16.00;99.90
59301;DHT22;45073;52.740;6.784;2023-08-31T08:42:25;16.20;99.90
59301;DHT22;45073;52.740;6.784;2023-08-31T08:44:51;16.30;99.90
59301;DHT22;45073;52.740;6.784;2023-08-31T08:47:20;16.40;99.90
59301;DHT22;45073;52.740;6.784;2023-08-31T08:49:47;16.50;99.90
59301;DHT22;45073;52.740;6.784;2023-08-31T08:52:14;16.50;99.90
59301;DHT22;45073;52.740;6.784;2023-08-31T08:54:40;16.60;99.90
59301;DHT22;45073;52.740;6.784;2023-08-31T08:57:05;16.70;99.90
59301;DHT22;45073;52.740;6.784;2023-08-31T08:59:31;16.80;99.90
59301;DHT22;45073;52.740;6.784;2023-08-31T09:01:57;16.80;99.90
59301;DHT22;45073;52.740;6.784;2023-08-31T09:04:23;16.90;99.90
59301;DHT22;45073;52.740;6.784;2023-08-31T09:06:50;16.90;99.90
59301;DHT22;45073;52.740;6.784;2023-08-31T09:09:16;17.00;99.90
59301;DHT22;45073;52.740;6.784;2023-08-31T09:11:43;16.90;99.90
59301;DHT22;45073;52.740;6.784;2023-08-31T09:14:19;16.90;99.90
59301;DHT22;45073;52.740;6.784;2023-08-31T09:16:46;16.80;99.90
59301;DHT22;45073;52.740;6.784;2023-08-31T09:19:19;16.70;99.90
59301;DHT22;45073;52.740;6.784;2023-08-31T09:21:51;16.70;99.90
59301;DHT22;45073;52.740;6.784;2023-08-31T09:24:17;16.60;99.90
59301;DHT22;45073;52.740;6.784;2023-08-31T09:26:47;16.60;99.90
59301;DHT22;45073;52.740;6.784;2023-08-31T09:29:13;16.60;99.90
59301;DHT22;45073;52.740;6.784;2023-08-31T09:31:46;16.70;99.90
59301;DHT22;45073;52.740;6.784;2023-08-31T09:34:12;16.80;99.90
59301;DHT22;45073;52.740;6.784;2023-08-31T09:36:39;16.80;99.90
59301;DHT22;45073;52.740;6.784;2023-08-31T09:39:08;16.70;99.90
59301;DHT22;45073;52.740;6.784;2023-08-31T09:41:35;16.60;99.90
59301;DHT22;45073;52.740;6.784;2023-08-31T09:44:17;16.60;99.90
59301;DHT22;45073;52.740;6.784;2023-08-31T09:46:44;16.70;99.90
59301;DHT22;45073;52.740;6.784;2023-08-31T09:49:13;16.90;99.90
59301;DHT22;45073;52.740;6.784;2023-08-31T09:51:43;17.00;99.90
59301;DHT22;45073;52.740;6.784;2023-08-31T09:54:09;17.20;99.90
59301;DHT22;45073;52.740;6.784;2023-08-31T09:56:38;17.30;99.90
59301;DHT22;45073;52.740;6.784;2023-08-31T09:59:06;17.40;99.90
59301;DHT22;45073;52.740;6.784;2023-08-31T10:01:32;17.40;99.90
59301;DHT22;45073;52.740;6.784;2023-08-31T10:03:59;17.50;99.90
59301;DHT22;45073;52.740;6.784;2023-08-31T10:06:25;17.50;99.90
59301;DHT22;45073;52.740;6.784;2023-08-31T10:08:51;17.60;99.90
59301;DHT22;45073;52.740;6.784;2023-08-31T10:11:17;17.60;99.90
59301;DHT22;45073;52.740;6.784;2023-08-31T10:13:44;17.70;99.90
59301;DHT22;45073;52.740;6.784;2023-08-31T10:16:12;17.70;99.90
59301;DHT22;45073;52.740;6.784;2023-08-31T10:18:38;17.60;99.90
59301;DHT22;45073;52.740;6.784;2023-08-31T10:21:04;17.40;99.90
59301;DHT22;45073;52.740;6.784;2023-08-31T10:23:31;17.40;99.90
59301;DHT22;45073;52.740;6.784;2023-08-31T10:28:24;17.60;99.90
59301;DHT22;45073;52.740;6.784;2023-08-31T10:31:03;17.70;99.90
59301;DHT22;45073;52.740;6.784;2023-08-31T10:33:43;17.90;99.90
59301;DHT22;45073;52.740;6.784;2023-08-31T10:36:16;18.00;99.90
59301;DHT22;45073;52.740;6.784;2023-08-31T10:38:45;18.20;99.90
59301;DHT22;45073;52.740;6.784;2023-08-31T10:48:51;17.60;99.90
59301;DHT22;45073;52.740;6.784;2023-08-31T10:51:17;17.30;99.90
59301;DHT22;45073;52.740;6.784;2023-08-31T10:53:46;16.70;99.90
59301;DHT22;45073;52.740;6.784;2023-08-31T10:56:12;16.20;99.90
59301;DHT22;45073;52.740;6.784;2023-08-31T10:58:38;15.80;99.90
59301;DHT22;45073;52.740;6.784;2023-08-31T11:01:03;15.60;99.90
59301;DHT22;45073;52.740;6.784;2023-08-31T11:03:32;15.50;99.90
59301;DHT22;45073;52.740;6.784;2023-08-31T11:05:57;15.60;99.90
59301;DHT22;45073;52.740;6.784;2023-08-31T11:08:24;15.90;99.90
59301;DHT22;45073;52.740;6.784;2023-08-31T11:10:50;16.20;99.90
59301;DHT22;45073;52.740;6.784;2023-08-31T11:13:19;16.50;99.90
59301;DHT22;45073;52.740;6.784;2023-08-31T11:15:46;16.70;99.90
59301;DHT22;45073;52.740;6.784;2023-08-31T11:18:12;16.90;99.90
59301;DHT22;45073;52.740;6.784;2023-08-31T11:20:37;17.20;99.90
59301;DHT22;45073;52.740;6.784;2023-08-31T11:23:03;17.30;99.90
59301;DHT22;45073;52.740;6.784;2023-08-31T11:25:32;17.40;99.90
59301;DHT22;45073;52.740;6.784;2023-08-31T11:28:03;17.40;99.90
59301;DHT22;45073;52.740;6.784;2023-08-31T11:30:32;17.40;99.90
59301;DHT22;45073;52.740;6.784;2023-08-31T11:33:08;17.40;99.90
59301;DHT22;45073;52.740;6.784;2023-08-31T11:35:41;17.40;99.90
59301;DHT22;45073;52.740;6.784;2023-08-31T11:38:09;17.30;99.90
59301;DHT22;45073;52.740;6.784;2023-08-31T11:40:35;17.40;99.90
59301;DHT22;45073;52.740;6.784;2023-08-31T11:43:03;17.60;99.90
59301;DHT22;45073;52.740;6.784;2023-08-31T11:45:30;17.60;99.90
59301;DHT22;45073;52.740;6.784;2023-08-31T11:47:58;17.50;99.90
59301;DHT22;45073;52.740;6.784;2023-08-31T11:50:25;17.40;99.90
59301;DHT22;45073;52.740;6.784;2023-08-31T11:52:51;17.30;99.90
59301;DHT22;45073;52.740;6.784;2023-08-31T11:55:18;17.20;99.90
59301;DHT22;45073;52.740;6.784;2023-08-31T11:57:51;17.10;99.90
59301;DHT22;45073;52.740;6.784;2023-08-31T12:00:18;16.90;99.90
59301;DHT22;45073;52.740;6.784;2023-08-31T12:02:45;16.90;99.90
59301;DHT22;45073;52.740;6.784;2023-08-31T12:05:14;16.90;99.90
59301;DHT22;45073;52.740;6.784;2023-08-31T12:07:40;17.10;99.90
59301;DHT22;45073;52.740;6.784;2023-08-31T12:10:07;17.20;99.90
59301;DHT22;45073;52.740;6.784;2023-08-31T12:12:33;17.40;99.90
59301;DHT22;45073;52.740;6.784;2023-08-31T12:15:01;17.40;99.90
59301;DHT22;45073;52.740;6.784;2023-08-31T12:17:29;17.50;99.90
59301;DHT22;45073;52.740;6.784;2023-08-31T12:20:04;17.70;99.90
59301;DHT22;45073;52.740;6.784;2023-08-31T12:22:30;17.80;99.90
59301;DHT22;45073;52.740;6.784;2023-08-31T12:24:56;17.90;99.90
59301;DHT22;45073;52.740;6.784;2023-08-31T12:27:22;18.00;99.90
59301;DHT22;45073;52.740;6.784;2023-08-31T12:29:47;18.20;99.90
59301;DHT22;45073;52.740;6.784;2023-08-31T12:32:13;18.30;99.90
59301;DHT22;45073;52.740;6.784;2023-08-31T12:34:42;18.40;99.90
59301;DHT22;45073;52.740;6.784;2023-08-31T12:37:07;18.20;99.90
59301;DHT22;45073;52.740;6.784;2023-08-31T12:39:33;18.30;99.90
59301;DHT22;45073;52.740;6.784;2023-08-31T12:41:59;18.30;99.90
59301;DHT22;45073;52.740;6.784;2023-08-31T12:44:25;18.40;99.90
59301;DHT22;45073;52.740;6.784;2023-08-31T12:46:51;18.60;99.90
59301;DHT22;45073;52.740;6.784;2023-08-31T12:49:17;18.70;99.90
59301;DHT22;45073;52.740;6.784;2023-08-31T12:51:45;18.80;99.90
59301;DHT22;45073;52.740;6.784;2023-08-31T12:54:11;18.90;99.90
59301;DHT22;45073;52.740;6.784;2023-08-31T12:56:37;19.00;99.90
59301;DHT22;45073;52.740;6.784;2023-08-31T12:59:03;19.20;99.90
59301;DHT22;45073;52.740;6.784;2023-08-31T13:01:31;19.20;99.90
59301;DHT22;45073;52.740;6.784;2023-08-31T13:03:58;19.30;99.90
59301;DHT22;45073;52.740;6.784;2023-08-31T13:06:24;19.30;99.90
59301;DHT22;45073;52.740;6.784;2023-08-31T13:08:50;19.10;99.90
59301;DHT22;45073;52.740;6.784;2023-08-31T13:11:16;18.80;99.90
59301;DHT22;45073;52.740;6.784;2023-08-31T13:13:44;18.50;99.90
59301;DHT22;45073;52.740;6.784;2023-08-31T13:16:10;18.40;99.90
59301;DHT22;45073;52.740;6.784;2023-08-31T13:18:35;18.40;99.90
59301;DHT22;45073;52.740;6.784;2023-08-31T13:21:01;18.30;99.90
59301;DHT22;45073;52.740;6.784;2023-08-31T13:23:28;18.30;99.90
59301;DHT22;45073;52.740;6.784;2023-08-31T13:25:54;18.20;99.90
59301;DHT22;45073;52.740;6.784;2023-08-31T13:28:21;18.10;99.90
59301;DHT22;45073;52.740;6.784;2023-08-31T13:30:47;18.00;99.90
59301;DHT22;45073;52.740;6.784;2023-08-31T13:33:12;17.80;99.90
59301;DHT22;45073;52.740;6.784;2023-08-31T13:35:38;17.70;99.90
59301;DHT22;45073;52.740;6.784;2023-08-31T13:38:04;17.60;99.90
59301;DHT22;45073;52.740;6.784;2023-08-31T13:40:30;17.40;99.90
59301;DHT22;45073;52.740;6.784;2023-08-31T13:42:57;17.20;99.90
59301;DHT22;45073;52.740;6.784;2023-08-31T13:45:26;17.00;99.90
59301;DHT22;45073;52.740;6.784;2023-08-31T13:47:52;17.00;99.90
59301;DHT22;45073;52.740;6.784;2023-08-31T13:50:18;17.00;99.90
59301;DHT22;45073;52.740;6.784;2023-08-31T13:52:44;17.10;99.90
59301;DHT22;45073;52.740;6.784;2023-08-31T13:55:10;17.10;99.90
59301;DHT22;45073;52.740;6.784;2023-08-31T13:57:36;17.20;99.90
59301;DHT22;45073;52.740;6.784;2023-08-31T14:00:02;17.20;99.90
59301;DHT22;45073;52.740;6.784;2023-08-31T14:02:29;17.30;99.90
59301;DHT22;45073;52.740;6.784;2023-08-31T14:04:55;17.70;99.90
59301;DHT22;45073;52.740;6.784;2023-08-31T14:07:20;18.10;99.90
59301;DHT22;45073;52.740;6.784;2023-08-31T14:09:47;18.50;99.90
59301;DHT22;45073;52.740;6.784;2023-08-31T14:12:12;18.80;99.90
59301;DHT22;45073;52.740;6.784;2023-08-31T14:14:38;19.10;99.90
59301;DHT22;45073;52.740;6.784;2023-08-31T14:17:04;19.40;99.90
59301;DHT22;45073;52.740;6.784;2023-08-31T14:19:31;19.60;99.90
59301;DHT22;45073;52.740;6.784;2023-08-31T14:21:57;19.80;99.90
59301;DHT22;45073;52.740;6.784;2023-08-31T14:24:23;19.80;99.90
59301;DHT22;45073;52.740;6.784;2023-08-31T14:26:48;19.70;99.90
59301;DHT22;45073;52.740;6.784;2023-08-31T14:29:14;19.40;99.90
59301;DHT22;45073;52.740;6.784;2023-08-31T14:31:39;19.10;99.90
59301;DHT22;45073;52.740;6.784;2023-08-31T14:34:05;19.00;99.90
59301;DHT22;45073;52.740;6.784;2023-08-31T14:36:30;19.00;99.90
59301;DHT22;45073;52.740;6.784;2023-08-31T14:38:56;19.00;99.90
59301;DHT22;45073;52.740;6.784;2023-08-31T14:41:22;19.00;99.90
59301;DHT22;45073;52.740;6.784;2023-08-31T14:43:47;19.30;99.90
59301;DHT22;45073;52.740;6.784;2023-08-31T14:46:13;19.70;99.90
59301;DHT22;45073;52.740;6.784;2023-08-31T14:48:38;20.10;99.90
59301;DHT22;45073;52.740;6.784;2023-08-31T14:51:04;20.50;99.90
59301;DHT22;45073;52.740;6.784;2023-08-31T14:53:30;20.80;99.90
59301;DHT22;45073;52.740;6.784;2023-08-31T14:55:55;21.10;99.90
59301;DHT22;45073;52.740;6.784;2023-08-31T14:58:21;21.20;97.10
59301;DHT22;45073;52.740;6.784;2023-08-31T15:00:47;21.30;95.40
59301;DHT22;45073;52.740;6.784;2023-08-31T15:03:12;21.20;92.30
59301;DHT22;45073;52.740;6.784;2023-08-31T15:05:38;21.10;91.70
59301;DHT22;45073;52.740;6.784;2023-08-31T15:08:07;21.10;90.40
59301;DHT22;45073;52.740;6.784;2023-08-31T15:10:32;21.10;91.60
59301;DHT22;45073;52.740;6.784;2023-08-31T15:12:58;21.10;90.80
59301;DHT22;45073;52.740;6.784;2023-08-31T15:15:26;21.20;92.40
59301;DHT22;45073;52.740;6.784;2023-08-31T15:17:52;21.30;91.60
59301;DHT22;45073;52.740;6.784;2023-08-31T15:20:17;21.30;90.50
59301;DHT22;45073;52.740;6.784;2023-08-31T15:22:43;21.40;86.80
59301;DHT22;45073;52.740;6.784;2023-08-31T15:25:09;21.40;90.90
59301;DHT22;45073;52.740;6.784;2023-08-31T15:27:35;21.50;91.70
59301;DHT22;45073;52.740;6.784;2023-08-31T15:30:00;21.40;85.40
59301;DHT22;45073;52.740;6.784;2023-08-31T15:32:26;21.40;87.60
59301;DHT22;45073;52.740;6.784;2023-08-31T15:34:52;21.40;90.20
59301;DHT22;45073;52.740;6.784;2023-08-31T15:37:18;21.50;86.40
59301;DHT22;45073;52.740;6.784;2023-08-31T15:39:43;21.50;84.00
59301;DHT22;45073;52.740;6.784;2023-08-31T15:42:09;21.40;84.00